sensor_id;sensor_type;location;lat;lon;timestamp;temperature;humidity
5723;DHT22;2886;49.722;8.612;2023-07-13T00:00:41;21.30;46.80
5723;DHT22;2886;49.722;8.612;2023-07-13T00:03:07;21.20;47.70
5723;DHT22;2886;49.722;8.612;2023-07-13T00:05:33;21.20;48.30
5723;DHT22;2886;49.722;8.612;2023-07-13T00:07:59;21.10;48.00
5723;DHT22;2886;49.722;8.612;2023-07-13T00:10:25;21.10;48.40
5723;DHT22;2886;49.722;8.612;2023-07-13T00:12:51;21.10;48.30
5723;DHT22;2886;49.722;8.612;2023-07-13T00:15:23;21.00;48.90
5723;DHT22;2886;49.722;8.612;2023-07-13T00:17:50;20.90;49.00
5723;DHT22;2886;49.722;8.612;2023-07-13T00:20:16;20.90;49.40
5723;DHT22;2886;49.722;8.612;2023-07-13T00:22:42;20.90;49.90
5723;DHT22;2886;49.722;8.612;2023-07-13T00:25:11;20.80;50.10
5723;DHT22;2886;49.722;8.612;2023-07-13T00:27:36;20.80;49.70
5723;DHT22;2886;49.722;8.612;2023-07-13T00:30:02;20.70;50.20
5723;DHT22;2886;49.722;8.612;2023-07-13T00:32:28;20.70;50.40
5723;DHT22;2886;49.722;8.612;2023-07-13T00:34:55;20.70;50.80
5723;DHT22;2886;49.722;8.612;2023-07-13T00:37:20;20.60;51.20
5723;DHT22;2886;49.722;8.612;2023-07-13T00:39:46;20.60;52.00
5723;DHT22;2886;49.722;8.612;2023-07-13T00:42:12;20.50;52.40
5723;DHT22;2886;49.722;8.612;2023-07-13T00:44:38;20.50;52.60
5723;DHT22;2886;49.722;8.612;2023-07-13T00:47:05;20.40;53.00
5723;DHT22;2886;49.722;8.612;2023-07-13T00:49:32;20.40;54.20
5723;DHT22;2886;49.722;8.612;2023-07-13T00:52:05;20.30;55.70
5723;DHT22;2886;49.722;8.612;2023-07-13T00:54:34;20.20;57.90
5723;DHT22;2886;49.722;8.612;2023-07-13T00:57:04;20.20;58.20
5723;DHT22;2886;49.722;8.612;2023-07-13T00:59:31;20.10;58.50
5723;DHT22;2886;49.722;8.612;2023-07-13T01:01:59;20.00;58.50
5723;DHT22;2886;49.722;8.612;2023-07-13T01:04:25;20.00;59.90
5723;DHT22;2886;49.722;8.612;2023-07-13T01:06:51;19.90;60.90
5723;DHT22;2886;49.722;8.612;2023-07-13T01:09:19;19.90;62.50
5723;DHT22;2886;49.722;8.612;2023-07-13T01:11:46;19.80;60.40
5723;DHT22;2886;49.722;8.612;2023-07-13T01:14:12;19.80;60.50
5723;DHT22;2886;49.722;8.612;2023-07-13T01:16:40;19.80;60.60
5723;DHT22;2886;49.722;8.612;2023-07-13T01:19:24;19.70;62.00
5723;DHT22;2886;49.722;8.612;2023-07-13T01:21:55;19.70;62.50
5723;DHT22;2886;49.722;8.612;2023-07-13T01:24:21;19.70;63.00
5723;DHT22;2886;49.722;8.612;2023-07-13T01:26:46;19.60;63.80
5723;DHT22;2886;49.722;8.612;2023-07-13T01:29:12;19.50;64.80
5723;DHT22;2886;49.722;8.612;2023-07-13T01:31:38;19.40;65.10
5723;DHT22;2886;49.722;8.612;2023-07-13T01:34:03;19.30;65.00
5723;DHT22;2886;49.722;8.612;2023-07-13T01:36:29;19.20;65.00
5723;DHT22;2886;49.722;8.612;2023-07-13T01:38:54;19.20;65.30
5723;DHT22;2886;49.722;8.612;2023-07-13T01:41:20;19.00;66.80
5723;DHT22;2886;49.722;8.612;2023-07-13T01:43:48;19.00;68.20
5723;DHT22;2886;49.722;8.612;2023-07-13T01:46:13;18.80;68.80
5723;DHT22;2886;49.722;8.612;2023-07-13T01:48:39;18.70;69.20
5723;DHT22;2886;49.722;8.612;2023-07-13T01:51:05;18.70;69.40
5723;DHT22;2886;49.722;8.612;2023-07-13T01:53:30;18.60;70.00
5723;DHT22;2886;49.722;8.612;2023-07-13T01:55:56;18.60;70.80
5723;DHT22;2886;49.722;8.612;2023-07-13T01:58:22;18.50;71.10
5723;DHT22;2886;49.722;8.612;2023-07-13T02:00:51;18.40;72.40
5723;DHT22;2886;49.722;8.612;2023-07-13T02:03:17;18.40;73.60
5723;DHT22;2886;49.722;8.612;2023-07-13T02:05:44;18.30;73.80
5723;DHT22;2886;49.722;8.612;2023-07-13T02:08:10;18.20;74.80
5723;DHT22;2886;49.722;8.612;2023-07-13T02:10:36;18.20;74.50
5723;DHT22;2886;49.722;8.612;2023-07-13T02:13:05;18.10;75.30
5723;DHT22;2886;49.722;8.612;2023-07-13T02:15:31;18.10;74.50
5723;DHT22;2886;49.722;8.612;2023-07-13T02:17:57;18.10;74.80
5723;DHT22;2886;49.722;8.612;2023-07-13T02:20:24;18.10;74.90
5723;DHT22;2886;49.722;8.612;2023-07-13T02:22:50;18.00;74.90
5723;DHT22;2886;49.722;8.612;2023-07-13T02:25:15;18.00;75.20
5723;DHT22;2886;49.722;8.612;2023-07-13T02:27:41;18.00;75.10
5723;DHT22;2886;49.722;8.612;2023-07-13T02:30:07;18.00;74.80
5723;DHT22;2886;49.722;8.612;2023-07-13T02:32:33;17.90;75.20
5723;DHT22;2886;49.722;8.612;2023-07-13T02:34:59;17.90;77.00
5723;DHT22;2886;49.722;8.612;2023-07-13T02:37:25;17.80;77.10
5723;DHT22;2886;49.722;8.612;2023-07-13T02:39:50;17.80;76.70
5723;DHT22;2886;49.722;8.612;2023-07-13T02:42:16;17.80;77.10
5723;DHT22;2886;49.722;8.612;2023-07-13T02:44:42;17.70;78.10
5723;DHT22;2886;49.722;8.612;2023-07-13T02:47:07;17.70;77.90
5723;DHT22;2886;49.722;8.612;2023-07-13T02:49:33;17.60;78.30
5723;DHT22;2886;49.722;8.612;2023-07-13T02:51:58;17.60;78.60
5723;DHT22;2886;49.722;8.612;2023-07-13T02:54:25;17.50;79.00
5723;DHT22;2886;49.722;8.612;2023-07-13T02:56:50;17.50;79.60
5723;DHT22;2886;49.722;8.612;2023-07-13T02:59:16;17.40;80.40
5723;DHT22;2886;49.722;8.612;2023-07-13T03:01:42;17.40;80.90
5723;DHT22;2886;49.722;8.612;2023-07-13T03:04:07;17.30;81.50
5723;DHT22;2886;49.722;8.612;2023-07-13T03:06:33;17.30;82.30
5723;DHT22;2886;49.722;8.612;2023-07-13T03:08:59;17.20;82.50
5723;DHT22;2886;49.722;8.612;2023-07-13T03:11:25;17.20;83.10
5723;DHT22;2886;49.722;8.612;2023-07-13T03:13:52;17.20;83.20
5723;DHT22;2886;49.722;8.612;2023-07-13T03:16:18;17.10;83.20
5723;DHT22;2886;49.722;8.612;2023-07-13T03:18:45;17.20;83.60
5723;DHT22;2886;49.722;8.612;2023-07-13T03:21:11;17.10;83.40
5723;DHT22;2886;49.722;8.612;2023-07-13T03:23:36;17.10;83.50
5723;DHT22;2886;49.722;8.612;2023-07-13T03:26:07;17.00;83.50
5723;DHT22;2886;49.722;8.612;2023-07-13T03:28:33;17.00;84.00
5723;DHT22;2886;49.722;8.612;2023-07-13T03:31:03;17.00;84.10
5723;DHT22;2886;49.722;8.612;2023-07-13T03:33:30;16.90;84.80
5723;DHT22;2886;49.722;8.612;2023-07-13T03:35:56;16.90;85.90
5723;DHT22;2886;49.722;8.612;2023-07-13T03:38:22;16.90;87.10
5723;DHT22;2886;49.722;8.612;2023-07-13T03:40:48;16.90;90.10
5723;DHT22;2886;49.722;8.612;2023-07-13T03:43:14;16.80;90.50
5723;DHT22;2886;49.722;8.612;2023-07-13T03:45:40;16.80;91.20
5723;DHT22;2886;49.722;8.612;2023-07-13T03:48:06;16.80;91.40
5723;DHT22;2886;49.722;8.612;2023-07-13T03:50:31;16.80;91.60
5723;DHT22;2886;49.722;8.612;2023-07-13T03:52:58;16.70;91.80
5723;DHT22;2886;49.722;8.612;2023-07-13T03:55:24;16.70;90.70
5723;DHT22;2886;49.722;8.612;2023-07-13T03:57:57;16.70;91.20
5723;DHT22;2886;49.722;8.612;2023-07-13T04:00:23;16.70;90.80
5723;DHT22;2886;49.722;8.612;2023-07-13T04:02:49;16.70;90.50
5723;DHT22;2886;49.722;8.612;2023-07-13T04:05:15;16.70;91.70
5723;DHT22;2886;49.722;8.612;2023-07-13T04:07:41;16.70;92.10
5723;DHT22;2886;49.722;8.612;2023-07-13T04:10:07;16.70;91.70
5723;DHT22;2886;49.722;8.612;2023-07-13T04:12:33;16.70;91.80
5723;DHT22;2886;49.722;8.612;2023-07-13T04:14:59;16.70;91.60
5723;DHT22;2886;49.722;8.612;2023-07-13T04:17:25;16.70;91.90
5723;DHT22;2886;49.722;8.612;2023-07-13T04:19:50;16.80;92.20
5723;DHT22;2886;49.722;8.612;2023-07-13T04:22:16;16.70;91.90
5723;DHT22;2886;49.722;8.612;2023-07-13T04:24:42;16.70;92.10
5723;DHT22;2886;49.722;8.612;2023-07-13T04:27:07;16.70;92.40
5723;DHT22;2886;49.722;8.612;2023-07-13T04:29:33;16.70;92.60
5723;DHT22;2886;49.722;8.612;2023-07-13T04:31:59;16.70;92.60
5723;DHT22;2886;49.722;8.612;2023-07-13T04:34:24;16.80;92.50
5723;DHT22;2886;49.722;8.612;2023-07-13T04:36:50;16.80;92.80
5723;DHT22;2886;49.722;8.612;2023-07-13T04:39:16;16.80;92.90
5723;DHT22;2886;49.722;8.612;2023-07-13T04:41:41;16.80;92.80
5723;DHT22;2886;49.722;8.612;2023-07-13T04:44:07;16.80;92.40
5723;DHT22;2886;49.722;8.612;2023-07-13T04:46:33;16.90;91.90
5723;DHT22;2886;49.722;8.612;2023-07-13T04:48:58;16.90;91.70
5723;DHT22;2886;49.722;8.612;2023-07-13T04:51:24;17.00;92.00
5723;DHT22;2886;49.722;8.612;2023-07-13T04:53:51;17.00;92.00
5723;DHT22;2886;49.722;8.612;2023-07-13T04:56:17;17.00;91.20
5723;DHT22;2886;49.722;8.612;2023-07-13T04:58:42;17.10;90.70
5723;DHT22;2886;49.722;8.612;2023-07-13T05:01:09;17.10;90.30
5723;DHT22;2886;49.722;8.612;2023-07-13T05:03:35;17.10;90.00
5723;DHT22;2886;49.722;8.612;2023-07-13T05:06:05;17.10;89.80
5723;DHT22;2886;49.722;8.612;2023-07-13T05:08:31;17.20;90.00
5723;DHT22;2886;49.722;8.612;2023-07-13T05:10:56;17.30;90.60
5723;DHT22;2886;49.722;8.612;2023-07-13T05:13:24;17.40;89.40
5723;DHT22;2886;49.722;8.612;2023-07-13T05:16:01;17.60;85.20
5723;DHT22;2886;49.722;8.612;2023-07-13T05:18:27;17.70;83.80
5723;DHT22;2886;49.722;8.612;2023-07-13T05:21:07;17.90;85.00
5723;DHT22;2886;49.722;8.612;2023-07-13T05:23:34;18.10;84.80
5723;DHT22;2886;49.722;8.612;2023-07-13T05:26:00;18.80;82.00
5723;DHT22;2886;49.722;8.612;2023-07-13T05:28:27;19.10;77.90
5723;DHT22;2886;49.722;8.612;2023-07-13T05:30:52;19.30;75.30
5723;DHT22;2886;49.722;8.612;2023-07-13T05:33:19;19.50;70.00
5723;DHT22;2886;49.722;8.612;2023-07-13T05:35:45;19.90;68.70
5723;DHT22;2886;49.722;8.612;2023-07-13T05:38:11;20.60;67.20
5723;DHT22;2886;49.722;8.612;2023-07-13T05:40:37;21.20;62.00
5723;DHT22;2886;49.722;8.612;2023-07-13T05:43:03;21.40;57.10
5723;DHT22;2886;49.722;8.612;2023-07-13T05:45:29;21.80;50.20
5723;DHT22;2886;49.722;8.612;2023-07-13T05:47:54;21.80;50.60
5723;DHT22;2886;49.722;8.612;2023-07-13T05:50:20;21.80;49.20
5723;DHT22;2886;49.722;8.612;2023-07-13T05:52:46;21.80;49.70
5723;DHT22;2886;49.722;8.612;2023-07-13T05:55:12;21.90;50.70
5723;DHT22;2886;49.722;8.612;2023-07-13T05:57:38;21.90;52.00
5723;DHT22;2886;49.722;8.612;2023-07-13T06:00:04;21.90;52.50
5723;DHT22;2886;49.722;8.612;2023-07-13T06:02:30;22.70;51.80
5723;DHT22;2886;49.722;8.612;2023-07-13T06:04:55;23.80;48.90
5723;DHT22;2886;49.722;8.612;2023-07-13T06:07:21;24.90;46.60
5723;DHT22;2886;49.722;8.612;2023-07-13T06:09:47;25.90;44.60
5723;DHT22;2886;49.722;8.612;2023-07-13T06:12:12;26.80;38.90
5723;DHT22;2886;49.722;8.612;2023-07-13T06:14:38;27.10;37.60
5723;DHT22;2886;49.722;8.612;2023-07-13T06:17:04;27.40;37.60
5723;DHT22;2886;49.722;8.612;2023-07-13T06:19:30;27.70;36.30
5723;DHT22;2886;49.722;8.612;2023-07-13T06:21:55;28.00;35.70
5723;DHT22;2886;49.722;8.612;2023-07-13T06:24:21;28.20;34.80
5723;DHT22;2886;49.722;8.612;2023-07-13T06:26:47;28.00;35.10
5723;DHT22;2886;49.722;8.612;2023-07-13T06:29:13;28.20;35.00
5723;DHT22;2886;49.722;8.612;2023-07-13T06:31:38;28.80;34.00
5723;DHT22;2886;49.722;8.612;2023-07-13T06:34:04;29.10;32.70
5723;DHT22;2886;49.722;8.612;2023-07-13T06:36:29;28.60;32.80
5723;DHT22;2886;49.722;8.612;2023-07-13T06:38:55;28.50;33.00
5723;DHT22;2886;49.722;8.612;2023-07-13T06:41:21;28.90;32.40
5723;DHT22;2886;49.722;8.612;2023-07-13T06:43:47;29.20;31.70
5723;DHT22;2886;49.722;8.612;2023-07-13T06:46:13;28.70;32.00
5723;DHT22;2886;49.722;8.612;2023-07-13T06:48:38;28.70;32.10
5723;DHT22;2886;49.722;8.612;2023-07-13T06:51:04;29.30;31.20
5723;DHT22;2886;49.722;8.612;2023-07-13T06:53:30;29.30;30.70
5723;DHT22;2886;49.722;8.612;2023-07-13T06:55:55;29.60;30.70
5723;DHT22;2886;49.722;8.612;2023-07-13T06:58:21;29.90;30.60
5723;DHT22;2886;49.722;8.612;2023-07-13T07:00:51;30.20;29.80
5723;DHT22;2886;49.722;8.612;2023-07-13T07:03:17;30.00;29.80
5723;DHT22;2886;49.722;8.612;2023-07-13T07:05:42;29.10;30.00
5723;DHT22;2886;49.722;8.612;2023-07-13T07:08:08;28.10;31.00
5723;DHT22;2886;49.722;8.612;2023-07-13T07:10:35;27.60;32.00
5723;DHT22;2886;49.722;8.612;2023-07-13T07:13:01;27.20;33.20
5723;DHT22;2886;49.722;8.612;2023-07-13T07:15:26;26.60;34.10
5723;DHT22;2886;49.722;8.612;2023-07-13T07:17:52;26.30;35.40
5723;DHT22;2886;49.722;8.612;2023-07-13T07:20:18;25.80;36.60
5723;DHT22;2886;49.722;8.612;2023-07-13T07:22:43;25.60;37.50
5723;DHT22;2886;49.722;8.612;2023-07-13T07:25:09;25.50;37.10
5723;DHT22;2886;49.722;8.612;2023-07-13T07:27:35;25.30;37.50
5723;DHT22;2886;49.722;8.612;2023-07-13T07:30:00;25.20;37.70
5723;DHT22;2886;49.722;8.612;2023-07-13T07:32:28;25.10;37.80
5723;DHT22;2886;49.722;8.612;2023-07-13T07:34:54;25.00;38.70
5723;DHT22;2886;49.722;8.612;2023-07-13T07:37:19;24.90;38.00
5723;DHT22;2886;49.722;8.612;2023-07-13T07:39:45;24.90;37.80
5723;DHT22;2886;49.722;8.612;2023-07-13T07:42:10;25.10;38.40
5723;DHT22;2886;49.722;8.612;2023-07-13T07:44:40;25.10;36.80
5723;DHT22;2886;49.722;8.612;2023-07-13T07:47:06;25.00;36.80
5723;DHT22;2886;49.722;8.612;2023-07-13T07:49:32;24.50;38.10
5723;DHT22;2886;49.722;8.612;2023-07-13T07:51:57;24.20;39.30
5723;DHT22;2886;49.722;8.612;2023-07-13T07:54:23;24.10;39.70
5723;DHT22;2886;49.722;8.612;2023-07-13T07:56:48;24.00;39.60
5723;DHT22;2886;49.722;8.612;2023-07-13T07:59:15;24.00;39.90
5723;DHT22;2886;49.722;8.612;2023-07-13T08:01:41;24.30;39.20
5723;DHT22;2886;49.722;8.612;2023-07-13T08:04:06;24.60;38.10
5723;DHT22;2886;49.722;8.612;2023-07-13T08:06:33;24.30;39.40
5723;DHT22;2886;49.722;8.612;2023-07-13T08:09:01;23.80;40.00
5723;DHT22;2886;49.722;8.612;2023-07-13T08:11:27;23.70;40.90
5723;DHT22;2886;49.722;8.612;2023-07-13T08:13:53;23.40;41.70
5723;DHT22;2886;49.722;8.612;2023-07-13T08:16:19;23.10;41.80
5723;DHT22;2886;49.722;8.612;2023-07-13T08:18:44;23.10;42.50
5723;DHT22;2886;49.722;8.612;2023-07-13T08:21:10;23.30;41.40
5723;DHT22;2886;49.722;8.612;2023-07-13T08:23:36;23.50;41.20
5723;DHT22;2886;49.722;8.612;2023-07-13T08:26:02;23.70;41.10
5723;DHT22;2886;49.722;8.612;2023-07-13T08:28:30;24.20;40.30
5723;DHT22;2886;49.722;8.612;2023-07-13T08:31:05;24.50;37.50
5723;DHT22;2886;49.722;8.612;2023-07-13T08:33:33;24.50;38.20
5723;DHT22;2886;49.722;8.612;2023-07-13T08:35:59;24.70;38.10
5723;DHT22;2886;49.722;8.612;2023-07-13T08:38:25;24.90;37.00
5723;DHT22;2886;49.722;8.612;2023-07-13T08:40:55;25.10;37.00
5723;DHT22;2886;49.722;8.612;2023-07-13T08:43:36;25.30;36.10
5723;DHT22;2886;49.722;8.612;2023-07-13T08:46:28;25.40;35.20
5723;DHT22;2886;49.722;8.612;2023-07-13T08:48:59;25.40;36.30
5723;DHT22;2886;49.722;8.612;2023-07-13T08:51:31;25.60;35.90
5723;DHT22;2886;49.722;8.612;2023-07-13T08:54:02;25.80;35.40
5723;DHT22;2886;49.722;8.612;2023-07-13T08:56:29;26.00;34.80
5723;DHT22;2886;49.722;8.612;2023-07-13T08:58:58;26.10;34.70
5723;DHT22;2886;49.722;8.612;2023-07-13T09:01:30;26.40;34.80
5723;DHT22;2886;49.722;8.612;2023-07-13T09:03:59;26.60;34.70
5723;DHT22;2886;49.722;8.612;2023-07-13T09:06:34;26.80;34.20
5723;DHT22;2886;49.722;8.612;2023-07-13T09:09:19;27.10;33.40
5723;DHT22;2886;49.722;8.612;2023-07-13T09:11:49;27.20;34.00
5723;DHT22;2886;49.722;8.612;2023-07-13T09:14:37;27.40;32.70
5723;DHT22;2886;49.722;8.612;2023-07-13T09:17:07;27.20;32.60
5723;DHT22;2886;49.722;8.612;2023-07-13T09:19:36;27.00;33.00
5723;DHT22;2886;49.722;8.612;2023-07-13T09:22:03;27.00;32.50
5723;DHT22;2886;49.722;8.612;2023-07-13T09:24:41;27.00;32.40
5723;DHT22;2886;49.722;8.612;2023-07-13T09:27:19;26.50;33.30
5723;DHT22;2886;49.722;8.612;2023-07-13T09:29:50;26.50;33.00
5723;DHT22;2886;49.722;8.612;2023-07-13T09:32:21;26.50;32.80
5723;DHT22;2886;49.722;8.612;2023-07-13T09:34:52;26.80;31.60
5723;DHT22;2886;49.722;8.612;2023-07-13T09:37:21;26.90;31.80
5723;DHT22;2886;49.722;8.612;2023-07-13T09:39:49;26.70;31.20
5723;DHT22;2886;49.722;8.612;2023-07-13T09:42:18;26.10;32.70
5723;DHT22;2886;49.722;8.612;2023-07-13T09:44:53;25.70;33.00
5723;DHT22;2886;49.722;8.612;2023-07-13T09:47:24;25.80;33.10
5723;DHT22;2886;49.722;8.612;2023-07-13T09:50:02;26.10;33.30
5723;DHT22;2886;49.722;8.612;2023-07-13T09:52:43;26.30;31.60
5723;DHT22;2886;49.722;8.612;2023-07-13T09:55:32;26.20;31.00
5723;DHT22;2886;49.722;8.612;2023-07-13T09:58:04;26.20;31.30
5723;DHT22;2886;49.722;8.612;2023-07-13T10:00:31;25.90;31.60
5723;DHT22;2886;49.722;8.612;2023-07-13T10:03:29;25.90;32.00
5723;DHT22;2886;49.722;8.612;2023-07-13T10:06:09;26.00;33.30
5723;DHT22;2886;49.722;8.612;2023-07-13T10:08:36;26.60;32.00
5723;DHT22;2886;49.722;8.612;2023-07-13T10:11:24;27.20;30.60
5723;DHT22;2886;49.722;8.612;2023-07-13T10:13:54;27.60;29.70
5723;DHT22;2886;49.722;8.612;2023-07-13T10:16:24;27.90;29.10
5723;DHT22;2886;49.722;8.612;2023-07-13T10:18:55;28.40;29.10
5723;DHT22;2886;49.722;8.612;2023-07-13T10:21:26;28.50;28.40
5723;DHT22;2886;49.722;8.612;2023-07-13T10:23:56;28.30;28.40
5723;DHT22;2886;49.722;8.612;2023-07-13T10:26:29;28.20;29.10
5723;DHT22;2886;49.722;8.612;2023-07-13T10:29:00;28.20;29.00
5723;DHT22;2886;49.722;8.612;2023-07-13T10:31:26;28.50;28.90
5723;DHT22;2886;49.722;8.612;2023-07-13T10:33:52;28.70;28.50
5723;DHT22;2886;49.722;8.612;2023-07-13T10:36:28;27.70;29.30
5723;DHT22;2886;49.722;8.612;2023-07-13T10:38:57;27.40;29.60
5723;DHT22;2886;49.722;8.612;2023-07-13T10:41:26;27.50;29.40
5723;DHT22;2886;49.722;8.612;2023-07-13T10:43:55;27.50;29.60
5723;DHT22;2886;49.722;8.612;2023-07-13T10:46:25;27.50;30.00
5723;DHT22;2886;49.722;8.612;2023-07-13T10:48:59;27.60;29.00
5723;DHT22;2886;49.722;8.612;2023-07-13T10:51:27;27.70;28.90
5723;DHT22;2886;49.722;8.612;2023-07-13T10:54:19;27.70;29.10
5723;DHT22;2886;49.722;8.612;2023-07-13T10:56:50;27.60;29.10
5723;DHT22;2886;49.722;8.612;2023-07-13T10:59:25;27.30;29.90
5723;DHT22;2886;49.722;8.612;2023-07-13T11:04:41;27.20;30.00
5723;DHT22;2886;49.722;8.612;2023-07-13T11:09:52;27.00;31.20
5723;DHT22;2886;49.722;8.612;2023-07-13T11:17:53;27.00;29.50
5723;DHT22;2886;49.722;8.612;2023-07-13T11:20:32;26.80;30.30
5723;DHT22;2886;49.722;8.612;2023-07-13T11:25:41;26.70;31.20
5723;DHT22;2886;49.722;8.612;2023-07-13T11:30:53;26.80;31.30
5723;DHT22;2886;49.722;8.612;2023-07-13T11:33:29;27.00;30.60
5723;DHT22;2886;49.722;8.612;2023-07-13T11:36:04;27.20;30.00
5723;DHT22;2886;49.722;8.612;2023-07-13T11:38:45;27.40;30.00
5723;DHT22;2886;49.722;8.612;2023-07-13T11:41:25;27.80;29.30
5723;DHT22;2886;49.722;8.612;2023-07-13T11:44:05;27.90;29.80
5723;DHT22;2886;49.722;8.612;2023-07-13T11:46:30;27.70;28.70
5723;DHT22;2886;49.722;8.612;2023-07-13T11:48:56;27.00;29.80
5723;DHT22;2886;49.722;8.612;2023-07-13T11:51:27;26.50;30.30
5723;DHT22;2886;49.722;8.612;2023-07-13T11:53:55;26.60;30.60
5723;DHT22;2886;49.722;8.612;2023-07-13T11:56:23;26.70;30.90
5723;DHT22;2886;49.722;8.612;2023-07-13T11:58:51;27.20;30.20
5723;DHT22;2886;49.722;8.612;2023-07-13T12:01:26;27.60;30.00
5723;DHT22;2886;49.722;8.612;2023-07-13T12:04:02;27.90;29.00
5723;DHT22;2886;49.722;8.612;2023-07-13T12:06:29;27.90;29.00
5723;DHT22;2886;49.722;8.612;2023-07-13T12:09:03;27.50;29.10
5723;DHT22;2886;49.722;8.612;2023-07-13T12:11:29;27.60;29.30
5723;DHT22;2886;49.722;8.612;2023-07-13T12:13:55;28.00;28.70
5723;DHT22;2886;49.722;8.612;2023-07-13T12:18:47;29.00;28.10
5723;DHT22;2886;49.722;8.612;2023-07-13T12:21:17;29.10;26.90
5723;DHT22;2886;49.722;8.612;2023-07-13T12:23:44;28.60;27.30
5723;DHT22;2886;49.722;8.612;2023-07-13T12:26:12;28.50;28.10
5723;DHT22;2886;49.722;8.612;2023-07-13T12:28:54;28.20;28.10
5723;DHT22;2886;49.722;8.612;2023-07-13T12:31:31;27.60;28.70
5723;DHT22;2886;49.722;8.612;2023-07-13T12:36:35;27.00;29.20
5723;DHT22;2886;49.722;8.612;2023-07-13T12:39:13;26.80;29.70
5723;DHT22;2886;49.722;8.612;2023-07-13T12:41:39;26.80;29.80
5723;DHT22;2886;49.722;8.612;2023-07-13T12:44:11;27.10;29.60
5723;DHT22;2886;49.722;8.612;2023-07-13T12:46:38;27.40;29.10
5723;DHT22;2886;49.722;8.612;2023-07-13T12:49:07;27.50;28.60
5723;DHT22;2886;49.722;8.612;2023-07-13T12:51:33;27.60;29.10
5723;DHT22;2886;49.722;8.612;2023-07-13T12:54:16;28.00;28.70
5723;DHT22;2886;49.722;8.612;2023-07-13T12:56:42;28.30;28.30
5723;DHT22;2886;49.722;8.612;2023-07-13T12:59:17;28.20;28.00
5723;DHT22;2886;49.722;8.612;2023-07-13T13:01:43;28.00;28.10
5723;DHT22;2886;49.722;8.612;2023-07-13T13:04:09;27.50;28.60
5723;DHT22;2886;49.722;8.612;2023-07-13T13:06:38;27.00;28.90
5723;DHT22;2886;49.722;8.612;2023-07-13T13:09:11;26.70;29.80
5723;DHT22;2886;49.722;8.612;2023-07-13T13:11:37;26.40;30.10
5723;DHT22;2886;49.722;8.612;2023-07-13T13:14:03;26.10;30.30
5723;DHT22;2886;49.722;8.612;2023-07-13T13:18:59;26.50;30.40
5723;DHT22;2886;49.722;8.612;2023-07-13T13:21:25;26.70;29.50
5723;DHT22;2886;49.722;8.612;2023-07-13T13:23:52;26.90;29.50
5723;DHT22;2886;49.722;8.612;2023-07-13T13:26:19;26.80;29.00
5723;DHT22;2886;49.722;8.612;2023-07-13T13:28:45;26.90;29.10
5723;DHT22;2886;49.722;8.612;2023-07-13T13:31:11;27.10;28.60
5723;DHT22;2886;49.722;8.612;2023-07-13T13:33:45;27.50;29.00
5723;DHT22;2886;49.722;8.612;2023-07-13T13:36:19;27.80;28.80
5723;DHT22;2886;49.722;8.612;2023-07-13T13:38:45;27.90;28.50
5723;DHT22;2886;49.722;8.612;2023-07-13T13:41:12;28.30;28.30
5723;DHT22;2886;49.722;8.612;2023-07-13T13:43:39;28.20;28.20
5723;DHT22;2886;49.722;8.612;2023-07-13T13:48:39;27.60;28.80
5723;DHT22;2886;49.722;8.612;2023-07-13T13:51:18;27.40;29.20
5723;DHT22;2886;49.722;8.612;2023-07-13T13:53:45;27.00;29.30
5723;DHT22;2886;49.722;8.612;2023-07-13T13:56:11;26.50;30.10
5723;DHT22;2886;49.722;8.612;2023-07-13T13:58:37;26.40;30.20
5723;DHT22;2886;49.722;8.612;2023-07-13T14:01:03;26.50;30.60
5723;DHT22;2886;49.722;8.612;2023-07-13T14:03:33;26.30;30.50
5723;DHT22;2886;49.722;8.612;2023-07-13T14:05:59;26.20;31.00
5723;DHT22;2886;49.722;8.612;2023-07-13T14:08:24;26.30;30.70
5723;DHT22;2886;49.722;8.612;2023-07-13T14:10:53;26.10;30.90
5723;DHT22;2886;49.722;8.612;2023-07-13T14:13:22;26.00;30.90
5723;DHT22;2886;49.722;8.612;2023-07-13T14:15:52;26.30;31.50
5723;DHT22;2886;49.722;8.612;2023-07-13T14:18:18;26.70;30.40
5723;DHT22;2886;49.722;8.612;2023-07-13T14:20:47;27.00;30.20
5723;DHT22;2886;49.722;8.612;2023-07-13T14:23:15;27.30;29.60
5723;DHT22;2886;49.722;8.612;2023-07-13T14:25:42;27.50;28.40
5723;DHT22;2886;49.722;8.612;2023-07-13T14:28:21;27.30;28.90
5723;DHT22;2886;49.722;8.612;2023-07-13T14:30:48;26.80;29.70
5723;DHT22;2886;49.722;8.612;2023-07-13T14:33:14;26.70;30.00
5723;DHT22;2886;49.722;8.612;2023-07-13T14:35:40;26.60;30.00
5723;DHT22;2886;49.722;8.612;2023-07-13T14:38:10;26.60;30.00
5723;DHT22;2886;49.722;8.612;2023-07-13T14:40:36;26.60;30.30
5723;DHT22;2886;49.722;8.612;2023-07-13T14:43:02;26.50;30.00
5723;DHT22;2886;49.722;8.612;2023-07-13T14:45:28;26.30;30.20
5723;DHT22;2886;49.722;8.612;2023-07-13T14:47:56;26.40;30.60
5723;DHT22;2886;49.722;8.612;2023-07-13T14:50:30;26.70;30.40
5723;DHT22;2886;49.722;8.612;2023-07-13T14:52:55;27.10;29.70
5723;DHT22;2886;49.722;8.612;2023-07-13T14:55:21;27.10;29.50
5723;DHT22;2886;49.722;8.612;2023-07-13T14:57:48;27.10;29.30
5723;DHT22;2886;49.722;8.612;2023-07-13T15:00:18;27.30;29.30
5723;DHT22;2886;49.722;8.612;2023-07-13T15:02:48;27.70;29.10
5723;DHT22;2886;49.722;8.612;2023-07-13T15:05:19;27.50;28.90
5723;DHT22;2886;49.722;8.612;2023-07-13T15:07:45;27.20;28.70
5723;DHT22;2886;49.722;8.612;2023-07-13T15:10:24;27.00;29.10
5723;DHT22;2886;49.722;8.612;2023-07-13T15:12:56;26.80;29.40
5723;DHT22;2886;49.722;8.612;2023-07-13T15:15:23;26.70;29.20
5723;DHT22;2886;49.722;8.612;2023-07-13T15:17:48;26.70;29.90
5723;DHT22;2886;49.722;8.612;2023-07-13T15:22:46;27.10;29.30
5723;DHT22;2886;49.722;8.612;2023-07-13T15:25:17;27.10;28.80
5723;DHT22;2886;49.722;8.612;2023-07-13T15:27:43;26.90;29.50
5723;DHT22;2886;49.722;8.612;2023-07-13T15:30:11;27.00;29.20
5723;DHT22;2886;49.722;8.612;2023-07-13T15:32:36;27.10;29.30
5723;DHT22;2886;49.722;8.612;2023-07-13T15:35:02;26.70;29.40
5723;DHT22;2886;49.722;8.612;2023-07-13T15:37:28;26.40;29.70
5723;DHT22;2886;49.722;8.612;2023-07-13T15:39:54;26.40;30.00
5723;DHT22;2886;49.722;8.612;2023-07-13T15:42:20;26.60;29.60
5723;DHT22;2886;49.722;8.612;2023-07-13T15:44:47;27.00;29.20
5723;DHT22;2886;49.722;8.612;2023-07-13T15:47:14;27.10;28.70
5723;DHT22;2886;49.722;8.612;2023-07-13T15:49:40;26.70;28.90
5723;DHT22;2886;49.722;8.612;2023-07-13T15:52:25;26.30;29.40
5723;DHT22;2886;49.722;8.612;2023-07-13T15:55:00;26.00;30.00
5723;DHT22;2886;49.722;8.612;2023-07-13T15:57:26;26.00;29.80
5723;DHT22;2886;49.722;8.612;2023-07-13T15:59:52;26.10;30.00
5723;DHT22;2886;49.722;8.612;2023-07-13T16:02:19;26.20;29.80
5723;DHT22;2886;49.722;8.612;2023-07-13T16:04:46;26.30;29.10
5723;DHT22;2886;49.722;8.612;2023-07-13T16:07:15;26.30;29.70
5723;DHT22;2886;49.722;8.612;2023-07-13T16:09:42;26.20;29.70
5723;DHT22;2886;49.722;8.612;2023-07-13T16:12:12;26.10;29.80
5723;DHT22;2886;49.722;8.612;2023-07-13T16:14:40;26.00;30.40
5723;DHT22;2886;49.722;8.612;2023-07-13T16:17:12;25.80;30.80
5723;DHT22;2886;49.722;8.612;2023-07-13T16:19:38;25.40;31.50
5723;DHT22;2886;49.722;8.612;2023-07-13T16:22:04;25.30;31.70
5723;DHT22;2886;49.722;8.612;2023-07-13T16:24:31;25.10;32.20
5723;DHT22;2886;49.722;8.612;2023-07-13T16:26:57;24.90;32.40
5723;DHT22;2886;49.722;8.612;2023-07-13T16:29:29;24.90;32.80
5723;DHT22;2886;49.722;8.612;2023-07-13T16:32:12;24.90;32.50
5723;DHT22;2886;49.722;8.612;2023-07-13T16:34:40;25.20;32.30
5723;DHT22;2886;49.722;8.612;2023-07-13T16:37:21;25.40;32.10